Relevés horaires Schaffen (Belgique)


Relevés horaires à Schaffen - Jeudi 08 Avr. 2021
Heure UTC1 Température [°C] Vent [km/h] Hum. [%] Pres.4 [hPa] Visi. [Km] Nébu. [octa] Préc.5 [mm] Cond.
2m. Res. Ros. Dir.2 Vit. Moy. Raf.3
23:00 3.5 3.5 -1.6 S 3.7 -- 7.4 69 1018.5(-1.9/3h) 20 -- -- --
22:00 4.9 4.9 -1.7 S 3.7 -- 7.4 62 1019.1(-1.5/3h) 20 -- -- --
21:00 5.2 5.2 -1.8 S 3.7 -- 7.4 61 1019.7(-1.1/3h) 20 -- -- --
20:00 5.5 5.5 -1.8 S 3.7 -- 7.4 59 1020.5(-1.1/3h) 20 -- -- --
19:00 6.3 6.3 -2.0 S 3.7 -- 7.4 55 1020.7(-1.2/3h) 20 -- -- --
18:00 7.1 6.3 -2.2 S 5.6 -- 16.7 52 1020.8(-1.4/3h) 20 -- -- --
17:00 7.6 6.3 -2.2 SSO 7.4 -- 16.7 50 1021.6(-1.5/3h) 20 -- -- --
16:00 8.1 6.5 -2.3 SSO 9.3 -- 14.8 48 1021.8(-2.0/3h) 20 -- -- --
15:00 8.5 7.9 -3.9 SO 5.6 -- 16.7 41 1022.3(-2.1/3h) 20 -- -- --
14:00 8.0 6.8 -4.3 SO 7.4 -- 14.8 41 1023.2(-1.7/3h) 20 -- -- --
13:00 7.0 5.6 -5.0 SO 7.4 -- 16.7 42 1024(-1.0/3h) 20 -- -- --
12:00 7.0 5.6 -4.1 SO 7.4 -- 16.7 45 1024.7(-0.6/3h) 18 -- -- --
11:00 6.3 4.8 -5.5 SO 7.4 -- 14.8 42 1025(-0.2/3h) 20 -- -- --
10:00 6.2 4.7 -5.3 SO 7.4 -- 11.1 43 1025(0.1/3h) 20 -- -- --
09:00 5.9 4.9 -3.9 SSO 5.6 -- 9.3 49 1025.2(0.5/3h) 20 -- -- --
08:00 4.8 4.8 -3.3 NNO 1.9 -- 7.4 56 1025.2(0.7/3h) 20 -- -- --
07:00 3.2 3.2 -3.6 SO 3.7 -- 5.6 61 1025(0.6/3h) -- -- -- --
06:00 2.2 2.2 -4.1 SO 3.7 -- 7.4 63 1024.7(0.3/3h) -- -- -- --
05:00 2.0 0.4 -4.1 SO 5.6 -- 7.4 64 1024.5(0.0/3h) -- -- -- --
04:00 2.2 2.2 -3.6 OSO 3.7 -- 7.4 65 1024.5(0.0/3h) -- -- -- --
03:00 2.2 2.2 -3.2 OSO 3.7 -- 7.4 67 1024.5(0.1/3h) -- -- -- --
02:00 2.2 2.2 -2.9 OSO 3.7 -- 7.4 69 1024.5(0.4/3h) -- -- -- --
01:00 2.2 2.2 -2.6 OSO 3.7 -- 5.6 70 1024.5(0.5/3h) -- -- -- --
00:00 2.0 2.0 -2.4 NNO 1.9 -- 11.1 73 1024.2(0.8/3h) -- -- -- --

1 Coordinated Universal Time. Actuellement il est 21:00 locale et 19:00 UTC.

2 Le vent souffle depuis la direction indiquée vers la direction oposée.

3 Les rafales max. sont disponible 40 min après l'heure du relevé.

4 Pour les stations d'altitude (plus de 600m) le géopotentiel du niveau le plus proche de la pression obligatoire est indiqué.

5 Les stations disposant d'un diffuseur peuvent indiquer "trace". Cela signifie que des précipitations ont touchés le sol mais que la quantité est inférieure à 0.1 mm.

Récapitulatif de la journée
Température [°C] Vent [km/h] Ensoleillement4 [h] Precipitations totale5 [mm] Pression [Hpa]
Min1 Max.2 Moy.3 Max. Min Max.
1.7 9.1 0 16.7 0 h 0 min 0 1018.5 1025.2

1 Température minimale relevée entre 18:00 UTC la veille et 18:00 UTC le jour donné.

2 Température maximale relevée entre 06:00 UTC le jour donné et 06:00 UTC le lendemain.

3 Vent moyen de la journée basé sur les relevés horaires.

4 Ensoleillement en heures relevé entre 06:00 UTC la veille et 06:00 UTC le jour donné.

5 Précipitations totales tombées entre 06:00 UTC la jour donné et 06:00 UTC le lendemain.

Graphiques horaires